Winston, MT

1:28 AM MDT on April 21, 2015 (GMT -0600)
19 MWL | | Change Station
CLOSE
Current Station
Personal Weather Station
Location: Winston, MT
Elevation: 4472 ft
Nearby Weather Stations

Elev 4472 ft 46.47 °N, 111.67 °W | Updated 18 seconds ago

Clear
Clear
44.5 °F
Feels Like 40 °F
N
8.5
Wind Variable Wind from West
Gusts 8.5 mph

Today
High -- | Low -- °F
--% Chance of Precip.
Yesterday
High -- | Low -- °F
Precip. -- in
6:29 AM 8:22 PM
Waxing Crescent, 9% visible
Pressure 29.87 in
Visibility 10.0 miles
Clouds Clear
Windchill 40 °F
Dew Point 26 °F
Humidity 49%
Rainfall 0.00 in
Snow Depth Not available.
UV 0 out of 12
Pollen 8.10 out of 12
Air Quality Not available.
Flu Activity Regional
METAR KHLN 210653Z AUTO 00000KT 10SM CLR 08/M04 A2986 RMK AO2 SLP115 T00831039 402111022

More Conditions Fewer Conditions

Pressure 29.87 in
Visibility 10.0 miles
Clouds Clear
Windchill 40 °F
Dew Point 26 °F
Humidity 49%
Rainfall 0.00 in
Snow Depth Not available.
UV 0 out of 12
Pollen 8.10 out of 12
Air Quality Not available.
Flu Activity Regional
METAR KHLN 210653Z AUTO 00000KT 10SM CLR 08/M04 A2986 RMK AO2 SLP115 T00831039 402111022

More Conditions Fewer Conditions

10-Day Weather Forecast

Almanac

Astronomy

Apr. 21, 2015 Rise Set
Actual Time
Civil Twilight
Nautical Twilight
Astronomical Twilight
Moon
Length of Visible Light
Length of Day
Tomorrow will be .
, % of the Moon is Illuminated

Today's Extremes

State Highs State Lows

Community

WunderPhotos

Upload Photos

1,815,323 photos uploaded!

WunderBlogs® & News

Nearby

Air Quality

  Air Quality AQ Index Pollutant
Not available.

Snow Depth

Station Depth Elevation

Earthquake Activity

City Distance Mag. Time & Date
Minimum magnitude displayed is 2.5.

Coastal Water Temperatures

Place Temperature

Stations

Nearby Weather Stations

Station Location Temp. Windchill Dew Point Humidity Wind Precip. Elev Updated Type